createdAt,value
2018-07-12T00:00:02.948Z,17.80
2018-07-12T00:02:30.359Z,17.80
2018-07-12T00:04:57.838Z,17.80
2018-07-12T00:07:25.264Z,17.80
2018-07-12T00:09:52.605Z,17.80
2018-07-12T00:12:19.972Z,17.70
2018-07-12T00:14:47.339Z,17.80
2018-07-12T00:17:14.798Z,17.80
2018-07-12T00:19:42.170Z,17.80
2018-07-12T00:22:09.579Z,17.90
2018-07-12T00:24:37.882Z,17.80
2018-07-12T00:27:05.552Z,17.80
2018-07-12T00:29:32.923Z,17.80
2018-07-12T00:32:00.303Z,17.90
2018-07-12T00:34:27.682Z,17.90
2018-07-12T00:36:55.171Z,17.90
2018-07-12T00:39:22.598Z,17.90
2018-07-12T00:41:49.978Z,17.80
2018-07-12T00:44:17.439Z,17.80
2018-07-12T00:46:44.798Z,17.80
2018-07-12T00:49:12.202Z,17.70
2018-07-12T00:51:39.538Z,17.70
2018-07-12T00:54:06.887Z,17.70
2018-07-12T00:56:34.299Z,17.80
2018-07-12T00:59:01.959Z,17.80
2018-07-12T01:01:29.842Z,16.90
2018-07-12T01:03:57.217Z,17.70
2018-07-12T01:06:24.566Z,17.70
2018-07-12T01:08:51.947Z,17.70
2018-07-12T01:11:19.306Z,17.70
2018-07-12T01:13:46.678Z,17.70
2018-07-12T01:16:14.071Z,17.70
2018-07-12T01:18:41.544Z,17.70
2018-07-12T01:21:08.903Z,17.70
2018-07-12T01:23:36.429Z,17.60
2018-07-12T01:26:04.090Z,17.60
2018-07-12T01:28:31.892Z,17.70
2018-07-12T01:30:59.501Z,17.70
2018-07-12T01:33:27.091Z,17.70
2018-07-12T01:35:54.479Z,17.60
2018-07-12T01:38:21.967Z,17.70
2018-07-12T01:40:49.515Z,17.70
2018-07-12T01:43:16.858Z,17.70
2018-07-12T01:45:44.230Z,17.70
2018-07-12T01:48:11.816Z,17.70
2018-07-12T01:50:39.283Z,17.70
2018-07-12T01:53:06.826Z,17.80
2018-07-12T01:55:34.511Z,17.70
2018-07-12T01:58:01.879Z,17.70
2018-07-12T02:00:29.284Z,17.60
2018-07-12T02:02:56.686Z,17.50
2018-07-12T02:05:24.179Z,17.70
2018-07-12T02:07:51.542Z,17.80
2018-07-12T02:10:18.886Z,17.80
2018-07-12T02:12:46.383Z,17.80
2018-07-12T02:15:13.726Z,17.70
2018-07-12T02:17:41.095Z,17.70
2018-07-12T02:20:08.495Z,17.70
2018-07-12T02:22:35.866Z,17.70
2018-07-12T02:25:03.234Z,17.60
2018-07-12T02:29:58.406Z,17.70
2018-07-12T02:32:25.782Z,17.60
2018-07-12T02:34:53.118Z,17.60
2018-07-12T02:37:20.504Z,17.40
2018-07-12T02:39:47.849Z,17.50
2018-07-12T02:42:15.206Z,17.70
2018-07-12T02:44:43.115Z,17.70
2018-07-12T02:47:10.658Z,17.60
2018-07-12T02:49:38.057Z,17.50
2018-07-12T02:52:05.545Z,17.60
2018-07-12T02:54:32.938Z,17.60
2018-07-12T02:57:00.281Z,17.50
2018-07-12T02:59:27.734Z,17.50
2018-07-12T03:01:55.104Z,17.60
2018-07-12T03:04:22.475Z,17.70
2018-07-12T03:06:49.818Z,17.70
2018-07-12T03:09:17.204Z,17.70
2018-07-12T03:11:44.680Z,17.60
2018-07-12T03:14:12.222Z,17.50
2018-07-12T03:16:39.859Z,17.40
2018-07-12T03:19:07.233Z,17.30
2018-07-12T03:21:34.616Z,17.20
2018-07-12T03:24:01.968Z,17.10
2018-07-12T03:26:29.339Z,17.20
2018-07-12T03:28:56.835Z,17.20
2018-07-12T03:31:24.290Z,17.30
2018-07-12T03:33:51.694Z,17.50
2018-07-12T03:36:19.135Z,17.50
2018-07-12T03:38:46.477Z,17.50
2018-07-12T03:41:13.843Z,17.60
2018-07-12T03:43:41.247Z,17.60
2018-07-12T03:46:08.605Z,17.60
2018-07-12T03:48:35.962Z,17.40
2018-07-12T03:51:03.383Z,17.40
2018-07-12T03:53:30.732Z,17.30
2018-07-12T03:55:58.128Z,17.40
2018-07-12T03:58:25.499Z,17.20
2018-07-12T04:00:53.043Z,17.20
2018-07-12T04:03:20.438Z,17.20
2018-07-12T04:05:47.778Z,17.20
2018-07-12T04:08:15.238Z,17.20
2018-07-12T04:10:42.587Z,17.30
2018-07-12T04:13:09.956Z,17.30
2018-07-12T04:15:37.301Z,17.30
2018-07-12T04:18:04.690Z,17.30
2018-07-12T04:20:32.043Z,17.30
2018-07-12T04:22:59.402Z,17.40
2018-07-12T04:25:26.906Z,17.50
2018-07-12T04:27:54.571Z,17.50
2018-07-12T04:30:21.927Z,17.50
2018-07-12T04:32:49.307Z,17.50
2018-07-12T04:35:16.681Z,17.60
2018-07-12T04:37:44.283Z,17.60
2018-07-12T04:40:11.642Z,17.70
2018-07-12T04:42:38.995Z,17.50
2018-07-12T04:45:06.367Z,17.50
2018-07-12T04:47:33.745Z,17.50
2018-07-12T04:50:01.270Z,17.40
2018-07-12T04:52:28.711Z,17.40
2018-07-12T04:54:56.085Z,17.50
2018-07-12T04:57:23.622Z,17.50
2018-07-12T04:59:50.990Z,17.50
2018-07-12T05:02:18.365Z,17.40
2018-07-12T05:04:45.784Z,17.50
2018-07-12T05:07:13.457Z,17.50
2018-07-12T05:09:40.862Z,17.40
2018-07-12T05:12:08.214Z,17.40
2018-07-12T05:14:35.594Z,17.50
2018-07-12T05:17:03.070Z,17.40
2018-07-12T05:19:30.406Z,17.40
2018-07-12T05:21:57.901Z,17.30
2018-07-12T05:24:25.347Z,17.30
2018-07-12T05:26:52.719Z,17.30
2018-07-12T05:29:20.210Z,17.30
2018-07-12T05:31:47.602Z,17.30
2018-07-12T05:34:14.940Z,17.40
2018-07-12T05:36:51.767Z,17.60
2018-07-12T05:39:20.938Z,17.90
2018-07-12T05:41:49.902Z,18.00
2018-07-12T05:44:18.473Z,18.00
2018-07-12T05:46:47.342Z,18.20
2018-07-12T05:49:15.883Z,18.10
2018-07-12T05:51:45.166Z,18.30
2018-07-12T05:54:13.986Z,18.10
2018-07-12T05:56:42.750Z,18.20
2018-07-12T05:59:11.311Z,18.10
2018-07-12T06:01:51.532Z,18.10
2018-07-12T06:04:20.182Z,17.90
2018-07-12T06:06:48.751Z,18.00
2018-07-12T06:09:17.271Z,18.10
2018-07-12T06:11:45.776Z,18.00
2018-07-12T06:14:14.411Z,17.80
2018-07-12T06:16:43.239Z,17.60
2018-07-12T06:19:11.953Z,17.50
2018-07-12T06:21:40.559Z,17.60
2018-07-12T06:24:09.210Z,17.70
2018-07-12T06:26:37.731Z,17.80
2018-07-12T06:29:06.350Z,17.80
2018-07-12T06:31:34.980Z,17.90
2018-07-12T06:34:03.523Z,17.90
2018-07-12T06:36:32.347Z,17.90
2018-07-12T06:39:00.951Z,17.90
2018-07-12T06:41:29.719Z,17.80
2018-07-12T06:43:58.311Z,17.70
2018-07-12T06:46:27.006Z,17.70
2018-07-12T06:48:56.111Z,17.70
2018-07-12T06:51:24.697Z,17.70
2018-07-12T06:53:53.206Z,17.60
2018-07-12T06:56:21.960Z,17.70
2018-07-12T06:58:50.874Z,17.80
2018-07-12T07:01:19.542Z,17.60
2018-07-12T07:03:48.293Z,17.40
2018-07-12T07:06:17.082Z,17.30
2018-07-12T07:08:45.604Z,17.00
2018-07-12T07:11:14.231Z,16.70
2018-07-12T07:13:42.763Z,16.80
2018-07-12T07:16:11.307Z,16.80
2018-07-12T07:18:39.934Z,16.70
2018-07-12T07:21:08.464Z,16.50
2018-07-12T07:23:37.142Z,16.50
2018-07-12T07:26:05.667Z,16.50
2018-07-12T07:28:34.295Z,16.40
2018-07-12T07:31:02.944Z,16.40
2018-07-12T07:33:31.674Z,16.30
2018-07-12T07:38:28.482Z,16.20
2018-07-12T07:40:57.025Z,16.20
2018-07-12T07:43:25.766Z,16.30
2018-07-12T07:45:54.329Z,16.30
2018-07-12T07:48:23.443Z,16.30
2018-07-12T07:50:51.954Z,16.30
2018-07-12T07:53:20.607Z,16.20
2018-07-12T07:55:49.131Z,16.30
2018-07-12T07:58:17.955Z,16.30
2018-07-12T08:00:46.566Z,16.50
2018-07-12T08:03:15.412Z,16.40
2018-07-12T08:05:44.142Z,16.30
2018-07-12T08:08:12.690Z,16.30
2018-07-12T08:10:41.463Z,16.30
2018-07-12T08:13:10.074Z,16.60
2018-07-12T08:15:38.659Z,17.30
2018-07-12T08:18:07.298Z,18.10
2018-07-12T08:20:35.967Z,18.60
2018-07-12T08:23:04.495Z,18.80
2018-07-12T08:25:33.030Z,18.80
2018-07-12T08:28:12.810Z,18.50
2018-07-12T08:30:41.374Z,18.80
2018-07-12T08:33:10.283Z,18.90
2018-07-12T08:35:38.957Z,19.90
2018-07-12T08:38:07.491Z,20.20
2018-07-12T08:40:36.073Z,22.00
2018-07-12T08:43:04.667Z,22.90
2018-07-12T08:45:33.322Z,22.40
2018-07-12T08:48:01.910Z,22.60
2018-07-12T08:50:30.864Z,24.30
2018-07-12T08:52:59.726Z,22.70
2018-07-12T08:55:28.282Z,22.40
2018-07-12T08:57:56.865Z,22.40
2018-07-12T09:00:25.460Z,20.50
2018-07-12T09:02:54.139Z,22.10
2018-07-12T09:05:22.630Z,21.30
2018-07-12T09:10:19.383Z,20.30
2018-07-12T09:12:47.948Z,20.30
2018-07-12T09:15:16.475Z,21.20
2018-07-12T09:17:45.020Z,21.40
2018-07-12T09:20:13.642Z,21.90
2018-07-12T09:22:42.229Z,22.10
2018-07-12T09:25:10.998Z,21.50
2018-07-12T09:27:39.839Z,22.70
2018-07-12T09:30:08.607Z,23.90
2018-07-12T09:32:37.258Z,25.60
2018-07-12T09:35:05.819Z,26.20
2018-07-12T09:37:34.673Z,24.20
2018-07-12T09:40:03.538Z,23.70
2018-07-12T09:42:32.064Z,25.40
2018-07-12T09:45:00.639Z,23.70
2018-07-12T09:47:29.530Z,22.70
2018-07-12T09:49:58.133Z,23.20
2018-07-12T09:52:32.255Z,23.60
2018-07-12T09:55:01.267Z,24.50
2018-07-12T09:57:41.719Z,24.40
2018-07-12T10:00:10.554Z,23.40
2018-07-12T10:02:44.276Z,22.90
2018-07-12T10:06:18.923Z,23.60
2018-07-12T10:09:51.463Z,24.40
2018-07-12T10:12:25.201Z,25.60
